createdAt,value
2022-11-15T00:00:21.322Z,99.0
2022-11-15T00:14:21.336Z,99.0
2022-11-15T00:28:21.345Z,99.0
2022-11-15T00:42:21.355Z,99.0
2022-11-15T00:56:21.355Z,99.0
2022-11-15T01:10:21.359Z,99.0
2022-11-15T01:24:21.329Z,99.0
2022-11-15T01:38:21.378Z,99.0
2022-11-15T01:52:21.351Z,99.0
2022-11-15T02:06:21.372Z,99.0
2022-11-15T02:20:21.359Z,99.0
2022-11-15T02:34:21.398Z,99.0
2022-11-15T02:48:21.416Z,99.0
2022-11-15T03:02:21.368Z,99.0
2022-11-15T03:16:21.376Z,99.0
2022-11-15T03:30:21.394Z,99.0
2022-11-15T03:44:21.388Z,99.0
2022-11-15T03:58:21.418Z,99.0
2022-11-15T04:12:21.404Z,99.0
2022-11-15T04:26:21.396Z,99.0
2022-11-15T04:40:21.425Z,99.0
2022-11-15T04:54:21.416Z,99.0
2022-11-15T05:08:21.445Z,99.0
2022-11-15T05:22:21.416Z,99.0
2022-11-15T05:36:21.420Z,99.0
2022-11-15T05:50:21.417Z,99.0
2022-11-15T06:05:21.461Z,99.0
2022-11-15T06:20:21.479Z,99.0
2022-11-15T06:36:21.487Z,99.0
2022-11-15T06:51:21.470Z,99.0
2022-11-15T07:06:21.474Z,99.0
2022-11-15T07:21:26.306Z,99.0
2022-11-15T07:36:21.482Z,99.0
2022-11-15T07:51:21.533Z,98.0
2022-11-15T08:06:21.481Z,95.0
2022-11-15T08:21:21.506Z,91.0
2022-11-15T08:37:21.555Z,87.0
2022-11-15T08:52:21.563Z,82.0
2022-11-15T09:07:21.727Z,80.0
2022-11-15T09:22:21.727Z,84.0
2022-11-15T09:37:21.727Z,82.0
2022-11-15T09:52:21.732Z,78.0
2022-11-15T10:07:21.819Z,77.0
2022-11-15T10:22:21.822Z,77.0
2022-11-15T10:37:21.820Z,82.0
2022-11-15T10:52:21.824Z,83.0
2022-11-15T11:07:21.872Z,83.0
2022-11-15T11:22:21.869Z,84.0
2022-11-15T11:37:21.894Z,86.0
2022-11-15T11:53:21.912Z,87.0
2022-11-15T12:08:21.922Z,87.0
2022-11-15T12:23:21.930Z,88.0
2022-11-15T12:38:21.923Z,89.0
2022-11-15T12:53:21.969Z,89.0
2022-11-15T13:08:21.951Z,88.0
2022-11-15T13:23:21.981Z,87.0
2022-11-15T13:38:22.010Z,88.0
2022-11-15T13:53:22.059Z,88.0
2022-11-15T14:08:22.068Z,89.0
2022-11-15T14:23:22.101Z,90.0
2022-11-15T14:38:22.129Z,91.0
2022-11-15T14:53:22.203Z,92.0
2022-11-15T15:09:22.189Z,93.0
2022-11-15T15:24:22.338Z,94.0
2022-11-15T15:39:22.438Z,95.0
2022-11-15T15:54:22.382Z,96.0
2022-11-15T16:09:22.826Z,96.0
2022-11-15T16:24:22.564Z,97.0
2022-11-15T16:38:22.704Z,97.0
2022-11-15T16:52:22.685Z,97.0
2022-11-15T17:06:22.745Z,97.0
2022-11-15T17:20:22.757Z,98.0
2022-11-15T17:34:22.762Z,98.0
2022-11-15T17:48:22.788Z,98.0
2022-11-15T18:02:22.827Z,98.0
2022-11-15T18:16:22.863Z,98.0
2022-11-15T18:30:22.954Z,98.0
2022-11-15T18:44:22.830Z,99.0
2022-11-15T18:58:22.873Z,99.0
2022-11-15T19:12:22.882Z,99.0
2022-11-15T19:26:22.960Z,99.0
2022-11-15T19:40:22.909Z,99.0
2022-11-15T19:54:22.873Z,99.0
2022-11-15T20:08:22.879Z,99.0
2022-11-15T20:22:22.895Z,99.0
2022-11-15T20:36:23.009Z,99.0
2022-11-15T20:50:41.416Z,99.0
2022-11-15T21:04:22.880Z,99.0
2022-11-15T21:18:22.908Z,99.0
2022-11-15T21:32:22.923Z,99.0
2022-11-15T21:46:22.944Z,99.0
2022-11-15T22:00:23.019Z,99.0
2022-11-15T22:14:23.051Z,99.0
2022-11-15T22:28:23.081Z,99.0
2022-11-15T22:42:24.003Z,99.0
2022-11-15T22:56:23.084Z,99.0
2022-11-15T23:10:23.100Z,99.0
2022-11-15T23:24:23.136Z,99.0
2022-11-15T23:38:23.170Z,99.0
2022-11-15T23:52:23.196Z,99.0
